Republica Dominicana

vuelo de bajo nivel

             

 

           VUELOS DE BAJO NIVEL DESDE SUPERFICIE HASTA 24,000 PIES.

 

  VALIDO DESDE 301200Z ...………………………HASTA 010000Z

SALIDA  Y  PUESTA  DEL  SOL  06:29 / 18:28 

 

SANTO DOMINGO FIR...PORT-AU-PRINCE FIR... HISPANIOLA...SCT020 SCT060. 18Z LYRS OCNL BKN TOP ABV FL240. WDLY SCT SHRA/TSRA. OTLK...VFR SHRA TSRA BECMG VFR BY 04Z.WTRS...SCT020 SCT060. LYRS OCNL BKN TOP ABV FL240. WDLY SCT SHRA/TSRA. WND E 20-25KT. OTLK...VFR SHRA TSRA WND.

 

5,000 FT.

10,000 FT.

18,000 FT.

24,000 FT.

MDSD

1415KT+21ºC

1410KT+09ºC

1010KT+07ºC

1115KT-17ºC

MTPP

1615KT+21ºC

1410KT+09ºC

1310KT+07ºC

1315KT-17ºC

TJSJ

1215KT+20ºC

1310KT+10ºC

0710KT+08ºC

0810KT-18ºC

TAF MDPP 301000Z 3012/0112 00000KT 9999 FEW018 PROB30 3012/3018 7000 -TSRA FEW018CB BKN018 BECMG 3014/3016 09015KT=

TAF MDST 301000Z 3012/0112 13012KT 9999 SCT016 BKN300 =

TAF MDPC 301000Z 3012/0112 10012KT 9999 FEW018 PROB30 3018/0100 8000 -TSRA FEW018CB SCT020 BKN300=

TAF MDBH 301000Z 3012/0112 13010KT 9999 FEW016CB SCT018 BKN070 PROB30 3012/3018 7000 -TSRA FEW014CB BKN016 BKN070=

TAF MDJB 301000Z 3012/0112 03008KT 9999 FEW014CB BKN016 SCT080 PROB30 3012/3018 7000 -TSRA FEW012CB BKN014 BKN070= 

TAF MDSD 301000Z 3012/0112 12010KT 9999 FEW018CB SCT020 SCT080 PROB30 3014/3020 7000 -TSRA FEW014CB BKN014 SCT070=

TAF MDLR 301000Z 3012/0112 11010KT 9999 FEW016CB SCT018 SCT070 PROB30 3013/3019 7000 -TSRA FEW014CB BKN016 SCT070=

TAF MDCY 301000Z 3012/0112 00000KT 9999 SCT018 BECMG 3016/3018 14010KT PROB30 3016/3022 7000 -TSRA FEW016CB BKN014 BKN070=

KMIA 300914Z 3009/0112 VRB03KT P6SM FEW020 SCT250 FM301200 VRB04KT P6SM VCSH SCT025 BKN050
FM301600 10009KT P6SM VCTS SCT025CB BKN035 FM010200 07005KT P6SM FEW020 BKN050

KJFK 301003Z 3010/0112 28010KT P6SM -RA FEW010 OVC100 FM301200 23013G20KT 5SM BR VCSH OVC015
FM301400 26016G28KT P6SM SCT040 BKN250 FM302300 23014G23KT P6SM FEW040 FM010300 22013KT P6SM FEW040 FM010800 23015KT P6SM FEW200

TJSJ 300850Z 3009/0106 10004KT P6SM VCSH SCT025 SCT090 FM301300 09014KT P6SM VCSH FEW030 SCT060 FM301700 11016G26KT P6SM VCTS SCT030CB BKN060 FM302200 08010KT P6SM VCSH FEW030 SCT060

TAF MKJP 300515Z 3006/0106 14015KT 9999 SCT018 BKN020CB TEMPO 3006/3013 4000 TSRA BKN016 BKN018CB BECMG 3014/3016 14025KT TEMPO 3017/0104 2000 TSRA BKN016 BKN018CB

MUHA 300500Z 3006/0106 16008KT 9000 SCT025 TEMPO 3018/0102 3000 TSRA FEW025CB BKN040

TAF AMD MUGM 3007/0107 36008KT 9000 -SHRA VCTS FEW025CB BKN040 BKN070 OVC280 QNH2988INS
FM301200 14007KT 9999 FEW030 SCT070 SCT280 QNH2986INS FM301800 14012KT 9999 VCTS FEW030CB FEW120 SCT280 QNH2982INS FM010200 35007KT 9999 FEW030 SCT280 QNH2991INS T25/3011Z T32/3017Z AMD 0757Z FN00085

TAF TNCC 300515Z 3006/0106 11015KT 9999 SCT018 TEMPO 3006/3016 6000 SHRA BKN014
PROB40 TEMPO 3006/3014 4000 TSRA FEW012CB

TAF TFFR 300500Z 3006/0106 11005KT 9999 FEW020 SCT035 BKN160 TEMPO 3006/0106 3500 SHRA FEW013CB BKN018TCU PROB30 TEMPO 3008/3014 VRB15G30KT 1000 TSRA SCT007 BKN011CB
PROB30 TEMPO 3020/0106 VRB15G30KT 1000 TSRA SCT010 BKN013CB

PREPARADO POR: HENRIQUEZ A. 30 de SETIEMBRRE del 2020.-

-




Tamaño letra

Contraste

Otros